WEATHER DATA

YESTERDAY
Time Temp. Dewp. Hum. Wind dir Wind speed Wind gust Bar. 1h Prec. 24h Prec.
00:09 14.5 14 97 143 0.6 1.1 1024.3 0.0000 0.0000
00:19 14.4 13.9 97 68 0.6 0.8 1024.3 0.0000 0.0000
00:29 14.3 13.8 97 90 0.6 1.1 1024.2 0.0000 0.0000
00:38 14.1 13.6 97 56 0.6 1.4 1024.2 0.0000 0.0000
00:49 13.9 13.4 97 116 0.6 1.4 1024.3 0.0000 0.0000
00:59 13.9 13.4 97 132 0.6 1.7 1024.3 0.0000 0.0000
01:09 14 13.5 97 119 0.6 1.7 1024.2 0.0000 0.0000
01:19 14.1 13.6 97 122 0.6 1.4 1024.2 0.0000 0.0000
01:29 13.9 13.4 97 147 0.3 0.8 1024.2 0.0000 0.0000
01:39 13.9 13.4 97 132 0.6 1.1 1024.2 0.0000 0.0000
01:49 13.9 13.4 97 140 0.6 1.4 1024.1 0.0000 0.0000
02:00 13.9 13.4 97 125 0.3 0.8 1024 0.0000 0.0000
02:09 14 13.5 97 90 0.6 1.1 1023.8 0.0000 0.0000
02:19 14.1 13.6 97 90 0.3 0.8 1023.8 0.0000 0.0000
02:30 14.1 13.6 97 117 0.8 1.9 1023.8 0.0000 0.0000
02:40 14.2 13.7 97 127 0.8 1.9 1023.7 0.0000 0.0000
02:50 14.3 13.8 97 147 0.6 1.1 1023.7 0.0000 0.0000
02:59 14.3 13.8 97 120 0.6 1.1 1023.7 0.0000 0.0000
03:10 14.3 13.8 97 90 0.3 0.6 1023.7 0.0000 0.0000
03:20 14.3 13.8 97 137 0.6 1.4 1023.7 0.0000 0.0000
03:30 14.3 13.8 97 117 0.6 1.1 1023.6 0.0000 0.0000
03:40 14.4 13.9 97 119 0.6 1.4 1023.6 0.1010 0.1000
03:50 14.4 13.9 97 131 0.6 1.4 1023.5 0.2020 0.2000
04:00 14.4 13.9 97 168 0.3 0.8 1023.5 0.2020 0.2000
04:10 14.4 13.9 97 90 0.6 0.8 1023.6 0.2020 0.2000
04:21 14.4 13.9 97 71 0.6 1.1 1023.6 0.2020 0.2000
04:30 14.4 13.9 97 49 0.6 1.1 1023.7 0.2020 0.2000
04:40 14.4 13.9 97 90 0.3 0.6 1023.7 0.0000 0.2000
04:51 14.4 13.9 97 30 0.6 1.4 1023.7 0.0000 0.2000
05:01 14.2 13.7 97 37 1.4 2.5 1023.8 0.0000 0.2000
05:11 14.2 13.7 97 20 0.8 1.9 1024 0.3030 0.5000
05:20 14.1 13.6 97 21 1.4 2.2 1024.1 1.1110 1.3000
05:29 14.1 13.6 97 343 2.5 8.1 1024.1 3.7370 3.9000
05:39 13.9 13.4 97 285 2.5 4.7 1024.2 4.9490 5.2000
05:49 13.9 13.4 97 320 2.8 5.3 1024.3 5.0500 5.3000
06:00 14 13.5 97 320 3.6 5.3 1024.3 5.1510 5.4000
06:09 14 13.5 97 316 3.3 4.4 1024.4 5.0500 6.0000
06:19 14 13.5 97 327 3.1 3.9 1024.4 3.2320 6.3000
06:30 14 13.5 97 315 2.5 3.9 1024.5 1.2120 6.4000
06:40 14 13.5 97 247 2.2 5 1024.6 1.8180 7.1000
06:50 13.9 13.4 97 145 5 7.5 1024.8 1.7170 7.1000
07:00 14 13.5 97 152 4.2 6.4 1024.8 1.6160 7.1000
07:10 14 13.5 97 146 3.3 7.2 1024.8 1.3130 7.4000
07:20 14.1 13.6 97 145 4.4 8.1 1024.8 1.3130 7.6000
07:30 14.1 13.6 97 147 4.2 6.7 1024.8 0.9090 7.6000
07:41 14.3 13.8 97 141 3.9 7.2 1024.9 0.5050 7.6000
07:50 14.3 13.8 97 133 3.9 6.7 1025.1 0.5050 7.6000
08:00 14.5 14 97 118 3.6 5.8 1025.1 0.3030 7.6000
08:10 14.7 14.1 96 115 3.3 4.4 1025.2 0.1010 7.6000
08:21 15.4 14.9 97 60 3.1 6.9 1025.3 0.0000 7.6000
08:31 15.5 14.9 96 113 3.6 6.1 1025.3 0.0000 7.6000
08:40 15.6 15 96 135 3.9 6.1 1025.3 0.0000 7.6000
08:51 15.4 14.8 96 342 1.7 2.8 1025.4 0.0000 7.6000
09:01 15.4 14.8 96 225 1.1 1.7 1025.5 0.0000 7.6000
09:11 15.5 14.9 96 173 1.1 1.9 1025.7 0.0000 7.6000
09:21 15.6 15 96 11 0.8 1.4 1025.7 0.0000 7.6000
09:31 15.6 15 96 35 1.4 3.1 1025.7 0.0000 7.6000
09:41 15.8 15.2 96 204 1.4 4.4 1025.8 0.0000 7.6000
09:51 16.2 15.6 96 327 1.1 3.6 1025.9 0.0000 7.6000
10:02 16.3 15.5 95 46 0.8 1.4 1025.8 0.0000 7.6000
10:14 16.7 15.9 95 18 0.6 3.9 1025.8 0.0000 7.6000
10:25 17.2 16.1 93 355 0.8 3.3 1025.8 0.0000 7.6000
10:35 17.4 16.3 93 40 0.6 1.4 1025.8 0.0000 7.6000
10:44 17.7 16.2 91 32 0.8 1.4 1025.8 0.0000 7.6000
10:55 18.2 16.5 90 50 1.1 1.9 1025.8 0.0000 7.6000
11:05 18.4 16.6 89 35 1.4 2.2 1025.8 0.0000 7.6000
11:15 18.3 16.3 88 25 0.8 1.7 1025.9 0.0000 7.6000
11:25 18.2 16.2 88 40 1.1 1.9 1025.9 0.0000 7.6000
11:35 18.7 16.7 88 42 1.1 2.2 1025.9 0.0000 7.6000
11:45 18.9 16.5 86 40 1.1 1.7 1025.9 0.0000 7.6000
11:55 19 16.8 87 34 1.4 2.5 1025.9 0.0000 7.6000
12:05 18.9 16.3 85 52 1.1 2.2 1025.9 0.0000 7.6000
12:16 19 16.2 84 53 0.8 1.7 1025.9 0.0000 7.6000
12:25 19.2 16.2 83 55 1.1 2.5 1025.8 0.0000 7.6000
12:35 19.2 16.2 83 61 1.7 3.1 1025.8 0.0000 7.6000
12:46 19.4 16.4 83 45 1.7 3.3 1025.8 0.0000 7.6000
12:56 19.6 16.4 82 33 1.4 3.1 1025.7 0.0000 7.6000
13:06 19.6 15.9 79 32 1.7 3.3 1025.8 0.0000 7.6000
13:15 19.9 15.8 77 39 2.2 3.3 1025.7 0.0000 7.6000
13:26 19.8 16.1 79 45 1.9 3.6 1025.7 0.0000 7.6000
13:36 20.1 16.3 79 20 1.7 2.8 1025.7 0.0000 7.6000
13:46 19.8 15.5 76 32 1.7 2.8 1025.7 0.0000 7.6000
13:56 19.3 15.4 78 40 1.9 3.3 1025.8 0.0000 7.6000
14:06 19.4 15.3 77 56 1.7 2.8 1025.7 0.0000 7.6000
14:16 19.3 15.8 80 39 1.9 3.1 1025.7 0.0000 7.6000
14:26 19.4 15.7 79 18 1.1 2.2 1025.8 0.0000 7.6000
14:37 19.6 15.7 78 32 1.1 2.5 1025.8 0.0000 7.6000
14:46 19.8 15.9 78 38 1.7 3.3 1025.7 0.0000 7.6000
14:56 19.7 16 79 43 2.2 3.6 1025.7 0.0000 7.6000
15:07 19.5 15.6 78 49 1.1 2.2 1025.5 0.0000 7.6000
15:17 19.2 15.7 80 14 0.6 1.4 1025.8 0.0000 7.6000
15:27 19.4 16.3 82 29 0.3 1.1 1025.7 0.0000 7.6000
15:36 19.7 15.6 77 42 1.4 2.5 1025.7 0.0000 7.6000
15:47 19.4 15.3 77 54 1.4 2.5 1025.8 0.0000 7.6000
15:57 19.3 14.8 75 52 1.7 2.8 1025.7 0.0000 7.6000
16:07 19.3 14.8 75 61 1.1 1.7 1025.7 0.0000 7.6000
16:17 19.1 15.4 79 74 0.8 1.4 1025.7 0.0000 7.6000
16:27 19 15.7 81 63 0.6 0.8 1025.5 0.0000 7.6000
16:37 18.8 15.7 82 74 0.6 1.4 1025.5 0.0000 7.6000
16:47 18.9 16 83 90 0.6 1.1 1025.4 0.0000 7.6000
16:58 19.1 15.2 78 52 0.6 1.1 1025.4 0.0000 7.6000
17:08 19 15.7 81 66 0.6 0.8 1025.4 0.0000 7.6000
17:17 19 15.9 82 64 0.6 1.4 1025.4 0.0000 7.6000
17:28 19 15.1 78 65 1.1 1.7 1025.3 0.0000 7.6000
17:38 18.9 15 78 68 1.1 1.9 1025.3 0.0000 7.6000
17:48 19.2 14.9 76 46 1.1 2.2 1025.2 0.0000 7.6000
17:57 19.2 14.7 75 43 1.4 2.2 1025.2 0.0000 7.6000
18:08 19.2 15.3 78 37 1.1 2.2 1025.1 0.0000 7.6000
18:18 19.1 15 77 56 0.8 1.4 1025.1 0.0000 7.6000
18:28 18.9 15.6 81 69 0.6 1.1 1025 0.0000 7.6000
18:38 19 16 83 270 0.3 1.1 1025.1 0.0000 7.6000
18:48 19.4 15.7 79 26 0.3 0.8 1025 0.0000 7.6000
18:58 19 15.5 80 69 0.6 1.1 1025 0.0000 7.6000
19:08 18.9 16 83 90 0.3 0.8 1024.9 0.0000 7.6000
19:19 18.8 15.9 83 45 0.3 0.6 1024.9 0.0000 7.6000
19:29 18.9 16.1 84 34 0.3 1.1 1025 0.0000 7.6000
19:38 18.7 16.1 85 56 0.6 0.8 1025 0.0000 7.6000
19:49 18.5 15.9 85 90 0.3 0.8 1025.2 0.0000 7.6000
19:59 18.2 15.8 86 90 0.3 0.8 1025.2 0.0000 7.6000
20:09 17.9 15.5 86 315 0.3 0.6 1025.2 0.0000 7.6000
20:19 17.9 15.7 87 216 0.6 1.4 1025.2 0.0000 7.6000
20:29 17.8 15.4 86 52 0.3 0.6 1025.3 0.0000 7.6000
20:39 17.6 15.2 86 180 0.3 0.6 1025.3 0.0000 7.6000
20:49 17.4 15.2 87 149 0.3 0.8 1025.4 0.0000 7.6000
20:59 17.2 15 87 118 0.8 1.4 1025.5 0.0000 7.6000
21:10 16.9 14.7 87 112 0.8 2.2 1025.5 0.0000 7.6000
21:19 16.6 14.4 87 125 1.1 2.5 1025.7 0.0000 7.6000
21:29 16.3 14.3 88 144 0.6 1.1 1025.8 0.0000 7.6000
21:40 16 14 88 161 0.6 1.7 1025.8 0.0000 7.6000
21:50 15.7 13.7 88 143 0.8 2.2 1025.9 0.0000 7.6000
22:00 15.5 13.5 88 130 1.1 1.9 1026 0.0000 7.6000
22:10 15.3 13.3 88 136 1.4 2.2 1026.1 0.0000 7.6000
22:20 15.3 13.3 88 129 0.8 1.9 1026.1 0.0000 7.6000
22:30 15.2 13.1 87 138 1.1 2.2 1026.5 0.0000 7.6000
22:40 15.2 13.1 87 126 0.8 1.9 1026.6 0.0000 7.6000
22:50 15.2 13.1 87 133 1.4 2.2 1026.6 0.0000 7.6000
23:00 15.2 13.1 87 135 1.1 2.2 1026.7 0.0000 7.6000
23:10 15.1 13.1 88 141 0.8 1.7 1026.7 0.0000 7.6000
23:20 15.1 13 87 133 0.8 1.7 1026.8 0.0000 7.6000
23:31 15.1 12.8 86 131 1.1 2.2 1026.9 0.0000 7.6000
23:40 15 12.3 84 143 1.4 3.3 1026.9 0.0000 7.6000
23:50 14.9 12.4 85 147 0.8 1.9 1027 0.0000 7.6000

DAY STATISTIC

2022-07-05
TEMPERATURE
AVERAGE
16.6
HIGH
20.1
13:36
LOW
13.9
00:49
PRESSURE
AVERAGE
1025.2
HIGH
1027.0
23:50
LOW
1023.5
03:50
DEWPOINT
AVERAGE
14.7
HIGH
16.8
11:55
LOW
12.3
23:40
HUMIDITY
AVERAGE
89
HIGH
97
00:09
LOW
75
15:57
WIND SPEED
AVERAGE
1.3
HIGH
5.0
06:50
WIND GUST
AVERAGE
2.4
HIGH
8.1
05:29
WIND DIRECTION
PREVAILING
NE
36.6%
N
7.0
NE
36.6
E
12.7
SE
31.7
S
3.5
SW
2.1
W
1.4
NW
4.9
PRECIPITATION
RAIN HOUR
5.2
RAIN DAY
7.6
TEMPERATURE (°C)
LOW
13.9
HIGH
20.1
AVERAGE
16.6
PRESSURE (hpa)
LOW
1023.5
HIGH
1027.0
AVERAGE
1025.2
DEVICE